createdAt,value
2022-12-25T00:01:23.233Z,5.22
2022-12-25T00:03:50.616Z,4.10
2022-12-25T00:06:18.186Z,3.55
2022-12-25T00:08:45.083Z,3.10
2022-12-25T00:11:14.638Z,3.20
2022-12-25T00:13:41.816Z,5.18
2022-12-25T00:16:17.390Z,3.60
2022-12-25T00:18:44.333Z,3.38
2022-12-25T00:21:11.406Z,3.90
2022-12-25T00:23:38.795Z,4.20
2022-12-25T00:26:15.027Z,4.35
2022-12-25T00:28:41.862Z,4.35
2022-12-25T00:31:11.309Z,3.55
2022-12-25T00:33:39.948Z,3.28
2022-12-25T00:36:08.051Z,3.20
2022-12-25T00:38:36.050Z,3.03
2022-12-25T00:41:11.618Z,3.10
2022-12-25T00:43:41.996Z,2.70
2022-12-25T00:46:11.624Z,2.37
2022-12-25T00:48:38.538Z,2.67
2022-12-25T00:51:07.835Z,2.35
2022-12-25T00:53:34.502Z,2.60
2022-12-25T00:56:04.859Z,3.13
2022-12-25T00:58:33.845Z,3.20
2022-12-25T01:01:02.724Z,3.53
2022-12-25T01:03:29.845Z,3.42
2022-12-25T01:06:03.066Z,3.97
2022-12-25T01:08:33.576Z,3.85
2022-12-25T01:11:08.707Z,4.40
2022-12-25T01:13:37.176Z,4.00
2022-12-25T01:16:10.642Z,3.92
2022-12-25T01:18:38.508Z,4.13
2022-12-25T01:21:13.120Z,3.97
2022-12-25T01:23:39.672Z,4.65
2022-12-25T01:26:07.448Z,4.25
2022-12-25T01:28:34.246Z,4.35
2022-12-25T01:31:01.036Z,5.03
2022-12-25T01:33:27.637Z,4.43
2022-12-25T01:35:54.341Z,4.13
2022-12-25T01:38:21.645Z,3.97
2022-12-25T01:40:48.244Z,3.70
2022-12-25T01:43:20.886Z,4.32
2022-12-25T01:45:49.339Z,3.33
2022-12-25T01:48:19.905Z,2.95
2022-12-25T01:50:53.083Z,3.23
2022-12-25T01:53:20.251Z,3.30
2022-12-25T01:55:51.001Z,2.78
2022-12-25T01:58:18.345Z,3.10
2022-12-25T02:00:45.471Z,3.00
2022-12-25T02:03:12.112Z,3.30
2022-12-25T02:05:38.770Z,3.45
2022-12-25T02:08:11.091Z,3.97
2022-12-25T02:10:39.283Z,4.30
2022-12-25T02:13:07.665Z,3.80
2022-12-25T02:15:52.822Z,3.30
2022-12-25T02:18:29.621Z,3.50
2022-12-25T02:21:22.602Z,2.70
2022-12-25T02:24:31.976Z,3.08
2022-12-25T02:27:04.386Z,3.38
2022-12-25T02:29:36.804Z,2.95
2022-12-25T02:32:28.149Z,3.42
2022-12-25T02:35:12.804Z,3.80
2022-12-25T02:37:45.717Z,3.85
2022-12-25T02:40:36.203Z,3.50
2022-12-25T02:43:25.510Z,3.47
2022-12-25T02:46:16.538Z,3.50
2022-12-25T02:49:10.898Z,3.75
2022-12-25T02:52:02.714Z,3.05
2022-12-25T02:54:53.301Z,3.72
2022-12-25T02:57:43.875Z,3.20
2022-12-25T03:00:30.582Z,3.17
2022-12-25T03:03:18.031Z,3.30
2022-12-25T03:06:04.336Z,3.00
2022-12-25T03:08:40.148Z,3.30
2022-12-25T03:11:29.823Z,3.05
2022-12-25T03:14:20.499Z,3.00
2022-12-25T03:16:53.709Z,3.47
2022-12-25T03:19:44.613Z,3.42
2022-12-25T03:22:34.113Z,2.77
2022-12-25T03:25:19.773Z,3.13
2022-12-25T03:27:49.186Z,2.55
2022-12-25T03:30:34.527Z,3.28
2022-12-25T03:33:36.738Z,3.40
2022-12-25T03:36:40.953Z,2.97
2022-12-25T03:39:38.932Z,3.35
2022-12-25T03:42:25.724Z,3.65
2022-12-25T03:45:21.437Z,4.55
2022-12-25T03:48:10.306Z,3.20
2022-12-25T03:51:04.378Z,3.65
2022-12-25T03:53:58.982Z,3.40
2022-12-25T03:56:45.154Z,2.85
2022-12-25T03:59:30.682Z,3.20
2022-12-25T04:02:16.131Z,3.50
2022-12-25T04:05:01.388Z,3.80
2022-12-25T04:07:47.210Z,4.03
2022-12-25T04:10:32.653Z,3.67
2022-12-25T04:13:17.619Z,3.20
2022-12-25T04:16:02.952Z,3.60
2022-12-25T04:18:48.155Z,3.63
2022-12-25T04:21:33.533Z,5.78
2022-12-25T04:24:18.403Z,8.63
2022-12-25T04:27:03.446Z,6.40
2022-12-25T04:29:48.511Z,5.40
2022-12-25T04:32:33.600Z,4.60
2022-12-25T04:35:18.726Z,4.68
2022-12-25T04:37:45.554Z,4.95
2022-12-25T04:40:12.252Z,4.78
2022-12-25T04:42:38.900Z,4.72
2022-12-25T04:45:06.387Z,4.97
2022-12-25T04:47:33.317Z,4.85
2022-12-25T04:49:59.916Z,4.70
2022-12-25T04:52:26.670Z,4.75
2022-12-25T04:54:53.305Z,4.82
2022-12-25T04:57:19.815Z,4.90
2022-12-25T04:59:46.351Z,4.60
2022-12-25T05:02:13.131Z,5.10
2022-12-25T05:04:39.800Z,4.53
2022-12-25T05:07:06.371Z,5.00
2022-12-25T05:09:32.903Z,4.60
2022-12-25T05:11:59.526Z,6.72
2022-12-25T05:14:26.139Z,5.38
2022-12-25T05:16:53.049Z,6.47
2022-12-25T05:19:19.687Z,7.45
2022-12-25T05:21:46.264Z,7.32
2022-12-25T05:24:12.876Z,6.97
2022-12-25T05:26:39.572Z,6.28
2022-12-25T05:29:06.205Z,6.68
2022-12-25T05:31:35.716Z,5.70
2022-12-25T05:34:02.323Z,6.30
2022-12-25T05:36:29.068Z,6.13
2022-12-25T05:38:55.613Z,5.63
2022-12-25T05:41:22.319Z,5.25
2022-12-25T05:43:48.878Z,5.60
2022-12-25T05:46:15.954Z,6.25
2022-12-25T05:48:42.559Z,5.57
2022-12-25T05:51:14.046Z,6.65
2022-12-25T05:53:42.364Z,8.10
2022-12-25T05:56:09.549Z,5.97
2022-12-25T05:58:38.669Z,5.45
2022-12-25T06:01:12.111Z,4.85
2022-12-25T06:03:39.016Z,5.63
2022-12-25T06:06:07.170Z,6.00
2022-12-25T06:08:34.419Z,6.00
2022-12-25T06:11:06.264Z,5.93
2022-12-25T06:13:33.895Z,6.63
2022-12-25T06:16:04.507Z,5.45
2022-12-25T06:18:31.138Z,4.82
2022-12-25T06:20:57.695Z,4.80
2022-12-25T06:23:24.440Z,4.80
2022-12-25T06:25:51.055Z,5.00
2022-12-25T06:28:17.690Z,5.25
2022-12-25T06:30:44.248Z,5.00
2022-12-25T06:33:11.898Z,5.30
2022-12-25T06:35:40.193Z,4.90
2022-12-25T06:38:06.765Z,5.13
2022-12-25T06:40:34.793Z,5.75
2022-12-25T06:43:01.346Z,5.05
2022-12-25T06:45:27.945Z,5.05
2022-12-25T06:47:54.527Z,4.72
2022-12-25T06:50:21.125Z,4.70
2022-12-25T06:52:47.699Z,4.50
2022-12-25T06:55:14.308Z,4.65
2022-12-25T06:57:40.877Z,4.35
2022-12-25T07:00:08.170Z,4.80
2022-12-25T07:02:35.295Z,4.63
2022-12-25T07:05:03.992Z,4.40
2022-12-25T07:07:30.600Z,5.15
2022-12-25T07:09:57.186Z,5.72
2022-12-25T07:12:24.252Z,4.88
2022-12-25T07:14:54.634Z,4.70
2022-12-25T07:17:22.236Z,6.05
2022-12-25T07:19:49.295Z,5.38
2022-12-25T07:22:16.724Z,5.13
2022-12-25T07:24:43.317Z,5.90
2022-12-25T07:27:10.258Z,6.65
2022-12-25T07:29:36.826Z,6.35
2022-12-25T07:32:03.703Z,6.90
2022-12-25T07:34:30.358Z,7.57
2022-12-25T07:36:57.007Z,7.03
2022-12-25T07:39:23.710Z,7.32
2022-12-25T07:41:51.239Z,8.18
2022-12-25T07:44:18.167Z,8.18
2022-12-25T07:46:45.022Z,8.00
2022-12-25T07:49:12.232Z,9.35
2022-12-25T07:51:38.867Z,7.82
2022-12-25T07:54:05.503Z,6.65
2022-12-25T07:56:32.991Z,6.45
2022-12-25T07:58:59.624Z,10.55
2022-12-25T08:01:27.739Z,11.13
2022-12-25T08:03:57.085Z,12.25
2022-12-25T08:06:29.494Z,8.88
2022-12-25T08:11:23.541Z,5.82
2022-12-25T08:13:50.135Z,7.70
2022-12-25T08:16:16.787Z,7.57
2022-12-25T08:18:43.669Z,6.85
2022-12-25T08:21:13.285Z,7.65
2022-12-25T08:23:42.364Z,6.65
2022-12-25T08:26:13.182Z,5.85
2022-12-25T08:28:40.026Z,7.45
2022-12-25T08:31:14.845Z,10.55
2022-12-25T08:33:42.118Z,11.40
2022-12-25T08:36:10.345Z,10.23
2022-12-25T08:38:37.295Z,7.97
2022-12-25T08:41:04.133Z,6.25
2022-12-25T08:43:30.921Z,6.30
2022-12-25T08:45:57.578Z,6.97
2022-12-25T08:48:24.183Z,6.82
2022-12-25T08:50:52.375Z,6.38
2022-12-25T08:53:19.749Z,8.32
2022-12-25T08:55:46.512Z,8.20
2022-12-25T08:58:14.556Z,6.43
2022-12-25T09:00:41.187Z,5.68
2022-12-25T09:03:07.856Z,6.20
2022-12-25T09:05:35.790Z,6.85
2022-12-25T09:08:02.514Z,8.60
2022-12-25T09:10:29.228Z,8.48
2022-12-25T09:12:55.941Z,8.48
2022-12-25T09:15:22.709Z,7.82
2022-12-25T09:17:49.295Z,6.78
2022-12-25T09:20:15.859Z,5.20
2022-12-25T09:22:42.534Z,4.95
2022-12-25T09:25:09.838Z,5.07
2022-12-25T09:27:36.460Z,6.15
2022-12-25T09:30:04.085Z,6.22
2022-12-25T09:32:30.725Z,4.95
2022-12-25T09:34:57.386Z,5.00
2022-12-25T09:37:24.268Z,5.80
2022-12-25T09:39:50.973Z,5.88
2022-12-25T09:42:22.489Z,6.43
2022-12-25T09:44:54.888Z,4.72
2022-12-25T09:47:31.213Z,4.18
2022-12-25T09:50:11.331Z,4.55
2022-12-25T09:52:46.579Z,4.65
2022-12-25T09:55:20.996Z,5.97
2022-12-25T09:58:00.480Z,8.77
2022-12-25T10:00:42.661Z,14.13
2022-12-25T10:03:51.679Z,6.30
2022-12-25T10:07:01.681Z,4.85
2022-12-25T10:09:51.672Z,5.63
2022-12-25T10:12:49.228Z,5.40
2022-12-25T10:15:25.713Z,4.50
2022-12-25T10:18:10.528Z,6.55
2022-12-25T10:20:50.410Z,4.63
2022-12-25T10:23:29.046Z,4.68
2022-12-25T10:25:55.894Z,4.28
2022-12-25T10:28:36.029Z,4.43
2022-12-25T10:31:17.443Z,4.68
2022-12-25T10:33:44.158Z,4.25
2022-12-25T10:36:10.754Z,5.35
2022-12-25T10:38:37.308Z,4.95
2022-12-25T10:41:12.996Z,5.18
2022-12-25T10:43:48.936Z,4.95
2022-12-25T10:46:16.890Z,4.75
2022-12-25T10:49:05.408Z,4.82
2022-12-25T10:51:36.721Z,4.32
2022-12-25T10:56:31.395Z,4.40
2022-12-25T10:59:10.566Z,3.88
2022-12-25T11:01:37.451Z,3.60
2022-12-25T11:04:04.336Z,3.85
2022-12-25T11:06:32.599Z,3.85
2022-12-25T11:09:02.558Z,3.67
2022-12-25T11:11:30.355Z,3.97
2022-12-25T11:14:02.689Z,3.97
2022-12-25T11:16:30.898Z,3.08
2022-12-25T11:18:59.018Z,3.58
2022-12-25T11:21:29.565Z,4.13
2022-12-25T11:24:02.013Z,4.82
2022-12-25T11:26:31.248Z,3.67
2022-12-25T11:28:58.471Z,3.60
2022-12-25T11:31:40.577Z,2.70
2022-12-25T11:34:27.071Z,2.78
2022-12-25T11:36:54.008Z,3.10
2022-12-25T11:39:36.200Z,2.65
2022-12-25T11:42:14.474Z,2.67
2022-12-25T11:44:49.483Z,2.83
2022-12-25T11:47:37.624Z,2.10
2022-12-25T11:50:07.535Z,2.25
2022-12-25T11:52:38.733Z,2.33
2022-12-25T11:55:21.712Z,3.03
2022-12-25T11:57:54.510Z,2.20
2022-12-25T12:00:21.490Z,2.40
2022-12-25T12:02:58.804Z,2.38
2022-12-25T12:05:47.985Z,1.98
2022-12-25T12:08:15.509Z,2.70
2022-12-25T12:11:32.596Z,2.60
2022-12-25T12:14:20.252Z,2.97
2022-12-25T12:16:47.125Z,3.60
2022-12-25T12:19:26.106Z,2.90
2022-12-25T12:21:56.258Z,4.38
2022-12-25T12:24:24.949Z,3.13
2022-12-25T12:27:05.106Z,2.65
2022-12-25T12:29:41.023Z,2.30
2022-12-25T12:32:20.402Z,2.10
2022-12-25T12:34:50.511Z,2.50
2022-12-25T12:37:35.288Z,2.50
2022-12-25T12:40:03.323Z,2.60
2022-12-25T12:42:32.937Z,2.22
2022-12-25T12:45:18.011Z,2.00
2022-12-25T12:47:50.316Z,1.85
2022-12-25T12:50:40.946Z,2.30
2022-12-25T12:53:21.635Z,2.30
2022-12-25T12:55:48.324Z,2.40
2022-12-25T12:58:35.466Z,2.30
2022-12-25T13:01:26.563Z,1.90
2022-12-25T13:04:28.667Z,1.88
2022-12-25T13:07:13.747Z,1.58
2022-12-25T13:09:51.274Z,1.90
2022-12-25T13:12:19.302Z,1.90
2022-12-25T13:14:47.989Z,2.13
2022-12-25T13:17:22.061Z,1.90
2022-12-25T13:20:02.412Z,2.00
2022-12-25T13:22:34.762Z,1.90
2022-12-25T13:25:05.067Z,1.70
2022-12-25T13:27:33.401Z,1.90
2022-12-25T13:30:00.260Z,1.95
2022-12-25T13:32:30.678Z,2.53
2022-12-25T13:34:58.988Z,3.60
2022-12-25T13:37:31.076Z,3.40
2022-12-25T13:40:00.331Z,2.30
2022-12-25T13:42:30.051Z,2.10
2022-12-25T13:45:06.029Z,1.90
2022-12-25T13:47:38.299Z,1.80
2022-12-25T13:50:13.898Z,2.05
2022-12-25T13:52:40.485Z,2.47
2022-12-25T13:55:13.057Z,2.72
2022-12-25T13:57:47.591Z,2.60
2022-12-25T14:00:23.721Z,2.85
2022-12-25T14:02:51.443Z,3.78
2022-12-25T14:05:24.292Z,4.97
2022-12-25T14:07:53.116Z,4.18
2022-12-25T14:10:22.043Z,4.15
2022-12-25T14:12:55.080Z,3.97
2022-12-25T14:15:23.561Z,3.38
2022-12-25T14:17:52.024Z,4.30
2022-12-25T14:20:27.535Z,2.75
2022-12-25T14:22:56.854Z,4.05
2022-12-25T14:25:32.160Z,2.80
2022-12-25T14:28:09.415Z,3.17
2022-12-25T14:30:36.698Z,3.03
2022-12-25T14:33:03.424Z,4.63
2022-12-25T14:35:30.396Z,4.55
2022-12-25T14:38:00.331Z,3.00
2022-12-25T14:40:32.057Z,3.75
2022-12-25T14:42:59.857Z,3.58
2022-12-25T14:45:34.249Z,3.45
2022-12-25T14:48:19.774Z,2.80
2022-12-25T14:51:08.928Z,2.70
2022-12-25T14:53:50.999Z,2.60
2022-12-25T14:56:20.311Z,2.60
2022-12-25T14:58:52.603Z,2.60
2022-12-25T15:01:26.592Z,2.63
2022-12-25T15:04:04.868Z,2.92
2022-12-25T15:06:33.062Z,2.95
2022-12-25T15:09:02.855Z,2.78
2022-12-25T15:11:29.937Z,2.88
2022-12-25T15:13:56.497Z,3.25
2022-12-25T15:16:30.919Z,2.63
2022-12-25T15:19:00.363Z,3.38
2022-12-25T15:21:33.954Z,4.27
2022-12-25T15:24:00.846Z,3.60
2022-12-25T15:26:29.770Z,3.08
2022-12-25T15:29:59.705Z,2.53
2022-12-25T15:32:17.564Z,2.92
2022-12-25T15:34:46.194Z,2.85
2022-12-25T15:37:14.117Z,3.30
2022-12-25T15:39:40.758Z,3.13
2022-12-25T15:42:16.841Z,2.85
2022-12-25T15:44:44.605Z,2.70
2022-12-25T15:47:12.410Z,3.05
2022-12-25T15:49:39.370Z,2.95
2022-12-25T15:52:10.045Z,3.22
2022-12-25T15:54:39.689Z,5.32
2022-12-25T15:57:13.738Z,4.38
2022-12-25T15:59:40.313Z,4.70
2022-12-25T16:02:16.771Z,4.75
2022-12-25T16:04:43.860Z,4.70
2022-12-25T16:07:20.425Z,4.57
2022-12-25T16:09:47.089Z,4.30
2022-12-25T16:12:13.709Z,3.90
2022-12-25T16:14:40.721Z,3.55
2022-12-25T16:17:07.668Z,3.60
2022-12-25T16:19:34.229Z,3.95
2022-12-25T16:22:04.320Z,3.63
2022-12-25T16:24:30.967Z,3.97
2022-12-25T16:26:57.680Z,4.93
2022-12-25T16:29:24.337Z,4.90
2022-12-25T16:31:50.908Z,4.70
2022-12-25T16:34:17.598Z,5.07
2022-12-25T16:36:44.277Z,4.85
2022-12-25T16:39:10.861Z,5.05
2022-12-25T16:41:37.537Z,4.95
2022-12-25T16:44:09.614Z,4.85
2022-12-25T16:46:37.280Z,4.57
2022-12-25T16:49:04.044Z,6.78
2022-12-25T16:51:46.507Z,6.55
2022-12-25T16:54:16.094Z,6.03
2022-12-25T16:56:42.744Z,7.18
2022-12-25T16:59:09.356Z,9.30
2022-12-25T17:01:36.099Z,13.15
2022-12-25T17:04:03.345Z,14.20
2022-12-25T17:06:30.105Z,16.08
2022-12-25T17:08:59.035Z,9.75
2022-12-25T17:11:29.683Z,10.18
2022-12-25T17:13:58.611Z,12.70
2022-12-25T17:16:27.800Z,13.30
2022-12-25T17:19:01.257Z,14.82
2022-12-25T17:21:28.760Z,9.93
2022-12-25T17:24:01.685Z,6.72
2022-12-25T17:26:30.472Z,5.45
2022-12-25T17:28:57.252Z,6.47
2022-12-25T17:31:24.707Z,6.45
2022-12-25T17:33:51.531Z,6.22
2022-12-25T17:36:22.622Z,6.57
2022-12-25T17:38:49.896Z,4.75
2022-12-25T17:41:18.478Z,5.18
2022-12-25T17:43:46.391Z,5.07
2022-12-25T17:46:24.986Z,4.68
2022-12-25T17:48:52.587Z,5.72
2022-12-25T17:51:22.362Z,7.72
2022-12-25T17:53:51.618Z,9.88
2022-12-25T17:56:19.747Z,9.60
2022-12-25T17:58:54.854Z,11.32
2022-12-25T18:01:23.458Z,11.88
2022-12-25T18:03:51.311Z,13.23
2022-12-25T18:06:22.113Z,12.48
2022-12-25T18:08:52.887Z,11.15
2022-12-25T18:11:23.236Z,8.93
2022-12-25T18:13:52.172Z,8.27
2022-12-25T18:16:22.010Z,6.53
2022-12-25T18:18:52.154Z,6.45
2022-12-25T18:21:20.222Z,8.50
2022-12-25T18:23:46.882Z,11.20
2022-12-25T18:26:13.872Z,9.73
2022-12-25T18:28:42.713Z,8.63
2022-12-25T18:31:22.446Z,8.10
2022-12-25T18:33:50.383Z,6.00
2022-12-25T18:36:22.781Z,6.43
2022-12-25T18:38:51.070Z,5.43
2022-12-25T18:41:18.945Z,5.30
2022-12-25T18:43:53.619Z,4.55
2022-12-25T18:46:26.475Z,4.45
2022-12-25T18:48:56.634Z,4.18
2022-12-25T18:51:23.459Z,3.80
2022-12-25T18:53:51.005Z,4.13
2022-12-25T18:56:19.770Z,4.10
2022-12-25T18:58:47.169Z,4.82
2022-12-25T19:01:20.687Z,3.88
2022-12-25T19:03:48.994Z,3.47
2022-12-25T19:06:27.193Z,4.18
2022-12-25T19:08:55.773Z,4.18
2022-12-25T19:11:22.844Z,4.03
2022-12-25T19:13:49.573Z,4.10
2022-12-25T19:16:16.853Z,3.50
2022-12-25T19:18:45.130Z,3.90
2022-12-25T19:21:11.739Z,3.85
2022-12-25T19:23:38.993Z,4.22
2022-12-25T19:26:07.032Z,3.97
2022-12-25T19:28:34.449Z,3.63
2022-12-25T19:31:02.884Z,4.55
2022-12-25T19:33:31.679Z,3.92
2022-12-25T19:36:07.200Z,4.50
2022-12-25T19:38:34.227Z,5.20
2022-12-25T19:41:09.365Z,5.15
2022-12-25T19:43:38.633Z,4.65
2022-12-25T19:46:06.641Z,4.80
2022-12-25T19:48:33.979Z,3.60
2022-12-25T19:51:00.999Z,4.28
2022-12-25T19:53:31.469Z,5.93
2022-12-25T19:56:02.081Z,5.88
2022-12-25T19:58:29.707Z,5.85
2022-12-25T20:01:00.608Z,4.88
2022-12-25T20:03:27.691Z,4.05
2022-12-25T20:05:54.579Z,3.63
2022-12-25T20:08:21.395Z,4.10
2022-12-25T20:10:49.168Z,4.53
2022-12-25T20:13:16.504Z,4.22
2022-12-25T20:15:43.192Z,4.78
2022-12-25T20:18:09.778Z,6.07
2022-12-25T20:20:36.399Z,4.80
2022-12-25T20:23:03.714Z,5.60
2022-12-25T20:25:30.396Z,6.18
2022-12-25T20:27:56.984Z,6.97
2022-12-25T20:30:23.705Z,5.30
2022-12-25T20:32:50.875Z,4.53
2022-12-25T20:35:17.694Z,4.57
2022-12-25T20:37:44.695Z,7.28
2022-12-25T20:40:12.432Z,10.18
2022-12-25T20:42:39.138Z,7.30
2022-12-25T20:45:07.453Z,9.63
2022-12-25T20:47:34.918Z,9.38
2022-12-25T20:50:01.608Z,9.50
2022-12-25T20:52:28.374Z,11.18
2022-12-25T20:54:54.981Z,7.25
2022-12-25T20:57:21.534Z,5.10
2022-12-25T20:59:48.131Z,5.00
2022-12-25T21:02:34.280Z,6.55
2022-12-25T21:05:01.291Z,8.43
2022-12-25T21:07:27.853Z,9.10
2022-12-25T21:09:54.445Z,9.30
2022-12-25T21:12:20.995Z,7.70
2022-12-25T21:14:47.578Z,15.63
2022-12-25T21:17:14.132Z,16.25
2022-12-25T21:19:40.802Z,13.48
2022-12-25T21:22:07.402Z,13.38
2022-12-25T21:24:33.977Z,13.32
2022-12-25T21:27:00.569Z,16.25
2022-12-25T21:29:27.180Z,14.85
2022-12-25T21:32:12.972Z,10.13
2022-12-25T21:34:39.945Z,10.82
2022-12-25T21:37:06.496Z,8.90
2022-12-25T21:39:33.158Z,8.07
2022-12-25T21:41:59.731Z,7.35
2022-12-25T21:44:26.387Z,6.50
2022-12-25T21:46:53.230Z,6.35
2022-12-25T21:49:44.126Z,6.00
2022-12-25T21:52:10.908Z,8.40
2022-12-25T21:54:37.763Z,5.85
2022-12-25T21:57:05.022Z,5.35
2022-12-25T21:59:31.692Z,5.03
2022-12-25T22:01:59.482Z,4.65
2022-12-25T22:04:26.755Z,7.03
2022-12-25T22:07:12.124Z,8.10
2022-12-25T22:09:38.819Z,12.50
2022-12-25T22:12:27.382Z,13.45
2022-12-25T22:15:02.706Z,12.80
2022-12-25T22:17:50.126Z,6.15
2022-12-25T22:20:23.867Z,4.70
2022-12-25T22:22:51.117Z,6.18
2022-12-25T22:25:18.376Z,7.60
2022-12-25T22:27:46.726Z,6.55
2022-12-25T22:30:18.999Z,6.00
2022-12-25T22:32:46.333Z,6.25
2022-12-25T22:35:14.160Z,6.03
2022-12-25T22:37:42.228Z,5.85
2022-12-25T22:40:10.808Z,5.38
2022-12-25T22:42:37.469Z,5.32
2022-12-25T22:45:04.893Z,5.40
2022-12-25T22:47:31.575Z,4.50
2022-12-25T22:49:58.185Z,5.18
2022-12-25T22:52:24.841Z,6.53
2022-12-25T22:54:51.505Z,7.78
2022-12-25T22:57:18.159Z,6.35
2022-12-25T22:59:45.878Z,5.57
2022-12-25T23:02:12.607Z,4.40
2022-12-25T23:04:39.245Z,4.78
2022-12-25T23:07:05.862Z,4.00
2022-12-25T23:09:32.391Z,5.07
2022-12-25T23:11:59.458Z,4.47
2022-12-25T23:14:39.195Z,4.28
2022-12-25T23:17:29.261Z,4.38
2022-12-25T23:20:16.497Z,4.03
2022-12-25T23:23:01.917Z,3.90
2022-12-25T23:25:47.682Z,3.97
2022-12-25T23:28:14.436Z,4.18
2022-12-25T23:30:41.001Z,3.50
2022-12-25T23:33:07.609Z,4.10
2022-12-25T23:35:34.177Z,3.83
2022-12-25T23:38:00.999Z,3.60
2022-12-25T23:40:27.648Z,3.97
2022-12-25T23:42:54.264Z,4.45
2022-12-25T23:45:20.992Z,5.05
2022-12-25T23:47:47.553Z,4.90
2022-12-25T23:50:15.161Z,4.10
2022-12-25T23:52:42.038Z,4.45
2022-12-25T23:55:08.862Z,4.00
2022-12-25T23:57:35.390Z,3.65
